createdAt,value
2018-08-04T00:00:31.522Z,0
2018-08-04T00:01:31.534Z,0
2018-08-04T00:02:31.262Z,0
2018-08-04T00:03:31.770Z,0
2018-08-04T00:04:31.776Z,0
2018-08-04T00:05:31.764Z,0
2018-08-04T00:06:31.762Z,0
2018-08-04T00:07:31.760Z,0
2018-08-04T00:08:31.758Z,0
2018-08-04T00:09:31.801Z,0
2018-08-04T00:10:31.761Z,0
2018-08-04T00:11:31.504Z,0
2018-08-04T00:12:31.753Z,0
2018-08-04T00:13:31.765Z,0
2018-08-04T00:14:31.501Z,0
2018-08-04T00:15:31.838Z,0
2018-08-04T00:16:31.749Z,0
2018-08-04T00:17:31.755Z,0
2018-08-04T00:18:31.744Z,0
2018-08-04T00:19:31.751Z,0
2018-08-04T00:20:31.748Z,0
2018-08-04T00:21:31.504Z,0
2018-08-04T00:22:31.492Z,0
2018-08-04T00:23:31.743Z,0
2018-08-04T00:24:31.734Z,0
2018-08-04T00:25:31.737Z,0
2018-08-04T00:26:31.482Z,0
2018-08-04T00:27:31.767Z,0
2018-08-04T00:28:31.477Z,0
2018-08-04T00:29:31.224Z,0
2018-08-04T00:30:31.723Z,0
2018-08-04T00:31:31.731Z,0
2018-08-04T00:32:31.731Z,0
2018-08-04T00:33:31.726Z,0
2018-08-04T00:34:31.724Z,0
2018-08-04T00:35:31.223Z,0
2018-08-04T00:36:31.728Z,0
2018-08-04T00:37:31.713Z,0
2018-08-04T00:38:31.711Z,0
2018-08-04T00:39:31.717Z,0
2018-08-04T00:40:31.718Z,0
2018-08-04T00:41:31.457Z,0
2018-08-04T00:42:31.460Z,0
2018-08-04T00:43:31.460Z,0
2018-08-04T00:44:31.729Z,0
2018-08-04T00:45:31.451Z,0
2018-08-04T00:46:31.449Z,0
2018-08-04T00:47:31.697Z,0
2018-08-04T00:48:31.445Z,0
2018-08-04T00:49:31.696Z,0
2018-08-04T00:50:31.445Z,0
2018-08-04T00:51:31.446Z,0
2018-08-04T00:52:31.435Z,0
2018-08-04T00:53:31.688Z,0
2018-08-04T00:54:31.690Z,0
2018-08-04T00:55:31.442Z,0
2018-08-04T00:56:31.689Z,0
2018-08-04T00:57:31.682Z,0
2018-08-04T00:58:31.438Z,0
2018-08-04T00:59:31.680Z,0
2018-08-04T01:00:31.172Z,0
2018-08-04T01:01:31.674Z,0
2018-08-04T01:02:31.672Z,0
2018-08-04T01:03:31.167Z,0
2018-08-04T01:04:31.415Z,0
2018-08-04T01:05:31.660Z,0
2018-08-04T01:06:31.672Z,0
2018-08-04T01:07:31.412Z,0
2018-08-04T01:08:31.412Z,0
2018-08-04T01:09:31.401Z,0
2018-08-04T01:10:31.404Z,0
2018-08-04T01:11:31.649Z,0
2018-08-04T01:12:31.648Z,0
2018-08-04T01:13:31.452Z,0
2018-08-04T01:14:31.394Z,0
2018-08-04T01:15:31.643Z,0
2018-08-04T01:16:31.650Z,0
2018-08-04T01:17:31.640Z,0
2018-08-04T01:18:31.139Z,0
2018-08-04T01:19:31.634Z,0
2018-08-04T01:20:31.634Z,0
2018-08-04T01:21:31.630Z,0
2018-08-04T01:22:31.635Z,0
2018-08-04T01:23:31.633Z,0
2018-08-04T01:24:31.373Z,0
2018-08-04T01:25:31.372Z,0
2018-08-04T01:26:31.366Z,0
2018-08-04T01:28:31.361Z,0
2018-08-04T01:29:31.367Z,0
2018-08-04T01:30:31.369Z,0
2018-08-04T01:31:31.622Z,0
2018-08-04T01:32:31.663Z,0
2018-08-04T01:33:31.651Z,0
2018-08-04T01:34:31.605Z,0
2018-08-04T01:35:31.348Z,0
2018-08-04T01:36:31.614Z,0
2018-08-04T01:37:31.561Z,0
2018-08-04T01:38:31.596Z,0
2018-08-04T01:39:31.548Z,0
2018-08-04T01:40:31.344Z,0
2018-08-04T01:41:31.343Z,0
2018-08-04T01:42:32.867Z,0
2018-08-04T01:43:31.584Z,0
2018-08-04T01:44:31.593Z,0
2018-08-04T01:45:31.581Z,0
2018-08-04T01:47:31.325Z,0
2018-08-04T01:50:31.820Z,0
2018-08-04T01:51:31.577Z,0
2018-08-04T01:52:31.314Z,0
2018-08-04T01:53:31.613Z,0
2018-08-04T01:54:31.566Z,0
2018-08-04T01:55:31.572Z,0
2018-08-04T01:56:31.557Z,0
2018-08-04T01:57:34.667Z,0
2018-08-04T01:58:31.758Z,0
2018-08-04T01:59:31.311Z,0
2018-08-04T02:00:31.550Z,0
2018-08-04T02:02:31.545Z,0
2018-08-04T02:03:31.295Z,0
2018-08-04T02:05:35.364Z,0
2018-08-04T02:06:31.539Z,0
2018-08-04T02:07:36.414Z,0
2018-08-04T02:08:31.281Z,0
2018-08-04T02:09:31.529Z,0
2018-08-04T02:10:31.275Z,0
2018-08-04T02:11:31.521Z,0
2018-08-04T02:12:31.521Z,0
2018-08-04T02:13:31.519Z,0
2018-08-04T02:14:31.018Z,0
2018-08-04T02:15:31.515Z,0
2018-08-04T02:16:31.512Z,0
2018-08-04T02:17:31.554Z,0
2018-08-04T02:18:31.521Z,0
2018-08-04T02:19:31.265Z,0
2018-08-04T02:20:31.254Z,0
2018-08-04T02:21:31.508Z,0
2018-08-04T02:22:31.251Z,0
2018-08-04T02:23:31.245Z,0
2018-08-04T02:24:30.989Z,0
2018-08-04T02:25:31.239Z,0
2018-08-04T02:26:31.236Z,0
2018-08-04T02:27:31.491Z,0
2018-08-04T02:28:31.235Z,0
2018-08-04T02:29:31.228Z,0
2018-08-04T02:30:31.233Z,0
2018-08-04T02:31:31.534Z,0
2018-08-04T02:32:31.494Z,0
2018-08-04T02:33:31.478Z,0
2018-08-04T02:34:30.985Z,0
2018-08-04T02:35:30.720Z,0
2018-08-04T02:36:31.216Z,0
2018-08-04T02:38:30.962Z,0
2018-08-04T02:39:30.958Z,0
2018-08-04T02:40:31.475Z,0
2018-08-04T02:41:31.210Z,0
2018-08-04T02:42:31.475Z,0
2018-08-04T02:43:32.458Z,0
2018-08-04T02:44:35.273Z,0
2018-08-04T02:45:37.962Z,0
2018-08-04T02:46:31.196Z,0
2018-08-04T02:47:31.195Z,0
2018-08-04T02:48:31.195Z,0
2018-08-04T02:49:33.882Z,0
2018-08-04T02:51:31.438Z,0
2018-08-04T02:52:31.688Z,0
2018-08-04T02:53:33.726Z,0
2018-08-04T02:54:31.423Z,0
2018-08-04T02:55:31.176Z,0
2018-08-04T02:56:31.421Z,0
2018-08-04T02:57:31.165Z,0
2018-08-04T02:58:31.168Z,0
2018-08-04T02:59:30.907Z,0
2018-08-04T03:00:31.154Z,0
2018-08-04T03:01:31.160Z,0
2018-08-04T03:02:31.427Z,0
2018-08-04T03:03:31.414Z,0
2018-08-04T03:05:31.401Z,0
2018-08-04T03:06:31.406Z,0
2018-08-04T03:07:31.400Z,0
2018-08-04T03:08:31.932Z,0
2018-08-04T03:09:31.202Z,0
2018-08-04T03:10:31.447Z,0
2018-08-04T03:11:30.888Z,0
2018-08-04T03:12:31.393Z,0
2018-08-04T03:13:30.892Z,0
2018-08-04T03:14:31.126Z,0
2018-08-04T03:15:31.121Z,0
2018-08-04T03:16:31.120Z,0
2018-08-04T03:17:31.372Z,0
2018-08-04T03:18:33.924Z,0
2018-08-04T03:19:31.364Z,0
2018-08-04T03:20:31.367Z,5
2018-08-04T03:21:31.367Z,5
2018-08-04T03:22:32.387Z,5
2018-08-04T03:23:31.609Z,5
2018-08-04T03:24:31.354Z,5
2018-08-04T03:25:31.353Z,5
2018-08-04T03:26:31.361Z,5
2018-08-04T03:27:31.350Z,5
2018-08-04T03:28:31.090Z,5
2018-08-04T03:29:30.839Z,10
2018-08-04T03:30:31.146Z,10
2018-08-04T03:31:31.103Z,10
2018-08-04T03:32:31.324Z,10
2018-08-04T03:33:31.323Z,10
2018-08-04T03:34:31.067Z,10
2018-08-04T03:35:31.323Z,15
2018-08-04T03:36:31.066Z,15
2018-08-04T03:37:31.071Z,15
2018-08-04T03:40:31.303Z,20
2018-08-04T03:41:30.802Z,20
2018-08-04T03:42:31.298Z,25
2018-08-04T03:43:31.048Z,25
2018-08-04T03:44:31.296Z,30
2018-08-04T03:46:31.295Z,30
2018-08-04T03:48:31.287Z,35
2018-08-04T03:52:31.277Z,45
2018-08-04T03:53:30.781Z,45
2018-08-04T03:54:31.279Z,45
2018-08-04T03:55:31.272Z,50
2018-08-04T03:56:31.017Z,50
2018-08-04T03:57:31.261Z,50
2018-08-04T03:58:31.006Z,55
2018-08-04T03:59:31.002Z,55
2018-08-04T04:00:31.005Z,60
2018-08-04T04:01:31.002Z,60
2018-08-04T04:02:30.751Z,60
2018-08-04T04:03:31.257Z,65
2018-08-04T04:04:31.244Z,65
2018-08-04T04:05:30.989Z,70
2018-08-04T04:06:31.008Z,70
2018-08-04T04:07:31.237Z,75
2018-08-04T04:08:31.247Z,80
2018-08-04T04:09:30.979Z,85
2018-08-04T04:10:30.979Z,85
2018-08-04T04:11:30.730Z,85
2018-08-04T04:12:31.229Z,85
2018-08-04T04:13:31.227Z,90
2018-08-04T04:14:30.973Z,95
2018-08-04T04:15:31.271Z,100
2018-08-04T04:16:31.222Z,100
2018-08-04T04:17:31.216Z,110
2018-08-04T04:18:31.217Z,115
2018-08-04T04:19:30.966Z,115
2018-08-04T04:20:31.211Z,125
2018-08-04T04:21:30.965Z,130
2018-08-04T04:22:30.958Z,135
2018-08-04T04:23:30.959Z,135
2018-08-04T04:24:30.962Z,140
2018-08-04T04:25:31.209Z,150
2018-08-04T04:26:31.200Z,150
2018-08-04T04:27:30.957Z,155
2018-08-04T04:28:31.451Z,160
2018-08-04T04:29:30.960Z,160
2018-08-04T04:30:31.197Z,165
2018-08-04T04:31:31.195Z,165
2018-08-04T04:32:31.206Z,170
2018-08-04T04:33:31.202Z,175
2018-08-04T04:34:30.950Z,175
2018-08-04T04:35:30.946Z,180
2018-08-04T04:36:31.202Z,180
2018-08-04T04:37:30.947Z,185
2018-08-04T04:38:31.201Z,185
2018-08-04T04:39:30.951Z,185
2018-08-04T04:40:30.947Z,190
2018-08-04T04:41:30.700Z,190
2018-08-04T04:42:30.952Z,205
2018-08-04T04:43:31.212Z,210
2018-08-04T04:44:31.225Z,225
2018-08-04T04:45:31.208Z,230
2018-08-04T04:46:31.210Z,230
2018-08-04T04:47:31.228Z,230
2018-08-04T04:48:30.855Z,240
2018-08-04T04:49:30.965Z,245
2018-08-04T04:50:30.969Z,250
2018-08-04T04:51:31.222Z,255
2018-08-04T04:52:31.225Z,250
2018-08-04T04:53:30.979Z,245
2018-08-04T04:54:30.981Z,230
2018-08-04T04:55:31.542Z,240
2018-08-04T04:56:30.746Z,260
2018-08-04T04:57:31.240Z,275
2018-08-04T04:58:31.249Z,280
2018-08-04T04:59:31.503Z,290
2018-08-04T05:00:30.999Z,300
2018-08-04T05:01:31.258Z,310
2018-08-04T05:02:31.264Z,325
2018-08-04T05:03:31.014Z,335
2018-08-04T05:04:30.774Z,340
2018-08-04T05:05:30.774Z,350
2018-08-04T05:06:30.774Z,360
2018-08-04T05:07:31.037Z,365
2018-08-04T05:08:31.288Z,370
2018-08-04T05:09:31.049Z,370
2018-08-04T05:10:31.317Z,370
2018-08-04T05:11:31.309Z,375
2018-08-04T05:12:31.325Z,375
2018-08-04T05:13:31.531Z,385
2018-08-04T05:14:30.819Z,390
2018-08-04T05:15:31.329Z,395
2018-08-04T05:16:30.830Z,400
2018-08-04T05:17:31.345Z,410
2018-08-04T05:18:31.349Z,425
2018-08-04T05:19:31.105Z,435
2018-08-04T05:20:31.367Z,440
2018-08-04T05:21:31.533Z,450
2018-08-04T05:22:31.393Z,455
2018-08-04T05:23:31.387Z,465
2018-08-04T05:24:31.408Z,470
2018-08-04T05:25:31.394Z,480
2018-08-04T05:26:31.156Z,490
2018-08-04T05:27:31.415Z,495
2018-08-04T05:28:31.421Z,495
2018-08-04T05:29:30.920Z,490
2018-08-04T05:30:31.688Z,495
2018-08-04T05:31:31.197Z,500
2018-08-04T05:32:31.201Z,510
2018-08-04T05:33:31.470Z,530
2018-08-04T05:34:31.215Z,530
2018-08-04T05:35:31.477Z,530
2018-08-04T05:36:31.498Z,535
2018-08-04T05:37:31.878Z,535
2018-08-04T05:38:30.999Z,540
2018-08-04T05:39:31.510Z,550
2018-08-04T05:40:31.527Z,555
2018-08-04T05:41:31.535Z,545
2018-08-04T05:42:31.545Z,560
2018-08-04T05:43:31.856Z,555
2018-08-04T05:44:31.555Z,555
2018-08-04T05:45:31.562Z,560
2018-08-04T05:46:44.309Z,565
2018-08-04T05:47:31.084Z,565
2018-08-04T05:48:31.355Z,580
2018-08-04T05:49:31.350Z,595
2018-08-04T05:50:31.615Z,610
2018-08-04T05:51:31.650Z,600
2018-08-04T05:52:31.636Z,595
2018-08-04T05:53:31.140Z,575
2018-08-04T05:54:30.898Z,550
2018-08-04T05:55:31.665Z,590
2018-08-04T05:56:31.673Z,610
2018-08-04T05:57:31.186Z,605
2018-08-04T05:58:31.710Z,615
2018-08-04T05:59:31.713Z,625
2018-08-04T06:00:31.737Z,630
2018-08-04T06:01:31.751Z,635
2018-08-04T06:02:32.001Z,645
2018-08-04T06:03:31.619Z,665
2018-08-04T06:04:31.773Z,675
2018-08-04T06:05:31.529Z,705
2018-08-04T06:06:31.784Z,710
2018-08-04T06:07:44.534Z,725
2018-08-04T06:08:31.812Z,725
2018-08-04T06:09:31.575Z,735
2018-08-04T06:10:31.826Z,730
2018-08-04T06:11:31.840Z,735
2018-08-04T06:12:31.853Z,745
2018-08-04T06:13:31.369Z,760
2018-08-04T06:14:31.426Z,770
2018-08-04T06:15:31.394Z,780
2018-08-04T06:16:31.901Z,790
2018-08-04T06:17:31.911Z,800
2018-08-04T06:18:31.670Z,805
2018-08-04T06:19:31.933Z,815
2018-08-04T06:20:31.950Z,820
2018-08-04T06:21:31.956Z,815
2018-08-04T06:22:31.494Z,820
2018-08-04T06:23:31.736Z,815
2018-08-04T06:24:31.767Z,815
2018-08-04T06:25:31.759Z,820
2018-08-04T06:26:32.027Z,815
2018-08-04T06:27:32.044Z,815
2018-08-04T06:28:32.226Z,820
2018-08-04T06:29:31.818Z,835
2018-08-04T06:30:31.969Z,860
2018-08-04T06:31:31.841Z,860
2018-08-04T06:32:32.102Z,875
2018-08-04T06:33:32.113Z,885
2018-08-04T06:34:31.875Z,885
2018-08-04T06:35:31.939Z,890
2018-08-04T06:36:32.166Z,880
2018-08-04T06:37:31.922Z,875
2018-08-04T06:38:31.682Z,865
2018-08-04T06:39:31.960Z,875
2018-08-04T06:40:31.964Z,875
2018-08-04T06:41:32.060Z,890
2018-08-04T06:42:31.985Z,900
2018-08-04T06:43:32.001Z,910
2018-08-04T06:44:32.047Z,935
2018-08-04T06:45:32.029Z,955
2018-08-04T06:46:32.050Z,980
2018-08-04T06:47:32.324Z,1000
2018-08-04T06:48:32.382Z,1010
2018-08-04T06:49:32.096Z,1015
2018-08-04T06:50:32.355Z,1010
2018-08-04T06:51:32.379Z,1010
2018-08-04T06:52:32.132Z,1005
2018-08-04T06:53:32.402Z,1005
2018-08-04T06:54:32.418Z,1010
2018-08-04T06:55:32.433Z,1020
2018-08-04T06:56:32.450Z,1035
2018-08-04T06:57:32.477Z,1055
2018-08-04T06:58:32.782Z,1070
2018-08-04T06:59:32.493Z,1085
2018-08-04T07:00:32.500Z,1100
2018-08-04T07:01:32.515Z,1095
2018-08-04T07:02:32.279Z,1105
2018-08-04T07:03:32.308Z,1100
2018-08-04T07:04:32.807Z,1105
2018-08-04T07:05:32.573Z,1120
2018-08-04T07:06:32.592Z,1135
2018-08-04T07:07:32.356Z,1140
2018-08-04T07:08:32.118Z,1150
2018-08-04T07:09:32.386Z,1155
2018-08-04T07:10:32.658Z,1165
2018-08-04T07:11:32.416Z,1165
2018-08-04T07:12:32.694Z,1175
2018-08-04T07:13:32.700Z,1195
2018-08-04T07:14:32.797Z,1210
2018-08-04T07:15:32.233Z,1210
2018-08-04T07:16:32.752Z,1215
2018-08-04T07:17:32.771Z,1225
2018-08-04T07:18:32.783Z,1235
2018-08-04T07:19:32.288Z,1245
2018-08-04T07:20:32.813Z,1240
2018-08-04T07:21:32.833Z,1255
2018-08-04T07:22:32.843Z,1265
2018-08-04T07:23:32.603Z,1270
2018-08-04T07:24:32.916Z,1270
2018-08-04T07:25:32.887Z,1270
2018-08-04T07:26:32.907Z,1285
2018-08-04T07:27:32.921Z,1290
2018-08-04T07:28:32.965Z,1295
2018-08-04T07:29:32.708Z,1305
2018-08-04T07:30:32.717Z,1310
2018-08-04T07:31:32.744Z,1310
2018-08-04T07:32:32.749Z,1325
2018-08-04T07:33:32.766Z,1330
2018-08-04T07:34:33.220Z,1335
2018-08-04T07:35:33.047Z,1345
2018-08-04T07:36:32.812Z,1345
2018-08-04T07:37:32.828Z,1365
2018-08-04T07:38:33.105Z,1410
2018-08-04T07:39:33.157Z,1410
2018-08-04T07:40:33.109Z,1395
2018-08-04T07:41:33.151Z,1390
2018-08-04T07:42:32.917Z,1385
2018-08-04T07:43:33.182Z,1375
2018-08-04T07:44:32.941Z,1380
2018-08-04T07:45:33.210Z,1375
2018-08-04T07:46:32.997Z,1375
2018-08-04T07:47:33.183Z,1365
2018-08-04T07:48:33.270Z,1365
2018-08-04T07:49:33.282Z,1365
2018-08-04T07:50:33.368Z,1365
2018-08-04T07:51:33.308Z,1375
2018-08-04T07:52:33.134Z,1375
2018-08-04T07:53:33.090Z,1375
2018-08-04T07:54:32.602Z,1395
2018-08-04T07:55:33.372Z,1405
2018-08-04T07:56:33.397Z,1430
2018-08-04T07:57:33.407Z,1445
2018-08-04T07:58:33.178Z,1475
2018-08-04T07:59:33.475Z,1505
2018-08-04T08:00:32.951Z,1515
2018-08-04T08:01:33.476Z,1525
2018-08-04T08:02:33.249Z,1535
2018-08-04T08:03:33.255Z,1550
2018-08-04T08:04:33.020Z,1560
2018-08-04T08:05:33.552Z,1575
2018-08-04T08:06:33.579Z,1585
2018-08-04T08:07:33.824Z,1605
2018-08-04T08:08:33.593Z,1620
2018-08-04T08:09:33.602Z,1630
2018-08-04T08:10:34.268Z,1620
2018-08-04T08:11:33.402Z,1595
2018-08-04T08:12:33.648Z,1580
2018-08-04T08:13:33.669Z,1570
2018-08-04T08:14:33.441Z,1585
2018-08-04T08:15:33.708Z,1595
2018-08-04T08:16:33.742Z,1605
2018-08-04T08:17:33.739Z,1605
2018-08-04T08:18:33.500Z,1600
2018-08-04T08:19:33.801Z,1590
2018-08-04T08:20:33.536Z,1600
2018-08-04T08:21:33.801Z,1605
2018-08-04T08:22:33.812Z,1610
2018-08-04T08:23:33.878Z,1600
2018-08-04T08:24:33.594Z,1605
2018-08-04T08:25:33.861Z,1605
2018-08-04T08:26:33.884Z,1615
2018-08-04T08:27:33.643Z,1625
2018-08-04T08:28:33.664Z,1625
2018-08-04T08:29:33.979Z,1620
2018-08-04T08:30:33.946Z,1625
2018-08-04T08:31:34.083Z,1615
2018-08-04T08:32:33.800Z,1615
2018-08-04T08:33:33.748Z,1635
2018-08-04T08:34:33.763Z,1680
2018-08-04T08:35:33.785Z,1675
2018-08-04T08:36:33.797Z,1685
2018-08-04T08:37:33.555Z,1705
2018-08-04T08:38:34.327Z,1710
2018-08-04T08:39:33.587Z,1720
2018-08-04T08:40:34.101Z,1710
2018-08-04T08:41:33.649Z,1680
2018-08-04T08:42:33.889Z,1665
2018-08-04T08:43:34.164Z,1680
2018-08-04T08:44:33.671Z,1690
2018-08-04T08:45:34.202Z,1700
2018-08-04T08:46:33.703Z,1730
2018-08-04T08:47:34.248Z,1695
2018-08-04T08:48:34.241Z,1120
2018-08-04T08:49:33.758Z,450
2018-08-04T08:50:34.271Z,330
2018-08-04T08:51:34.331Z,335
2018-08-04T08:52:34.357Z,330
2018-08-04T08:53:36.145Z,330
2018-08-04T08:54:34.344Z,330
2018-08-04T08:55:34.114Z,325
2018-08-04T08:56:33.861Z,325
2018-08-04T08:57:33.881Z,325
2018-08-04T08:58:34.134Z,320
2018-08-04T08:59:34.154Z,320
2018-08-04T09:00:34.414Z,315
2018-08-04T09:01:34.445Z,310
2018-08-04T09:02:34.452Z,310
2018-08-04T09:03:34.451Z,310
2018-08-04T09:04:34.507Z,305
2018-08-04T09:05:34.222Z,305
2018-08-04T09:06:34.485Z,305
2018-08-04T09:07:34.498Z,305
2018-08-04T09:08:34.321Z,300
2018-08-04T09:09:34.266Z,300
2018-08-04T09:10:34.527Z,300
2018-08-04T09:11:34.297Z,300
2018-08-04T09:12:34.297Z,300
2018-08-04T09:13:34.054Z,300
2018-08-04T09:14:34.067Z,300
2018-08-04T09:15:34.392Z,300
2018-08-04T09:16:34.596Z,300
2018-08-04T09:17:34.600Z,300
2018-08-04T09:18:34.362Z,300
2018-08-04T09:19:34.365Z,300
2018-08-04T09:20:34.630Z,300
2018-08-04T09:21:34.385Z,300
2018-08-04T09:22:34.396Z,300
2018-08-04T09:23:34.659Z,300
2018-08-04T09:24:34.420Z,300
2018-08-04T09:25:34.683Z,300
2018-08-04T09:26:34.438Z,295
2018-08-04T09:27:34.441Z,295
2018-08-04T09:28:34.702Z,295
2018-08-04T09:29:34.459Z,295
2018-08-04T09:30:34.466Z,295
2018-08-04T09:31:34.481Z,295
2018-08-04T09:32:34.741Z,295
2018-08-04T09:33:34.772Z,295
2018-08-04T09:34:34.510Z,295
2018-08-04T09:35:34.512Z,295
2018-08-04T09:36:34.518Z,295
2018-08-04T09:37:34.522Z,295
2018-08-04T09:38:34.784Z,295
2018-08-04T09:39:34.811Z,295
2018-08-04T09:40:35.057Z,295
2018-08-04T09:41:34.558Z,295
2018-08-04T09:42:34.564Z,295
2018-08-04T09:43:34.835Z,290
2018-08-04T09:44:34.627Z,290
2018-08-04T09:45:34.841Z,290
2018-08-04T09:46:34.852Z,290
2018-08-04T09:47:34.607Z,290
2018-08-04T09:48:34.869Z,290
2018-08-04T09:49:34.630Z,290
2018-08-04T09:50:34.878Z,295
2018-08-04T09:51:34.889Z,295
2018-08-04T09:52:35.079Z,290
2018-08-04T09:53:34.904Z,290
2018-08-04T09:54:34.669Z,290
2018-08-04T09:55:34.922Z,290
2018-08-04T09:56:34.678Z,290
2018-08-04T09:57:34.437Z,295
2018-08-04T09:58:34.945Z,290
2018-08-04T09:59:35.043Z,285
2018-08-04T10:00:34.454Z,285
2018-08-04T10:01:34.971Z,285
2018-08-04T10:02:34.721Z,285
2018-08-04T10:03:34.980Z,285
2018-08-04T10:04:34.741Z,285
2018-08-04T10:05:35.017Z,285
2018-08-04T10:06:34.760Z,285
2018-08-04T10:07:34.507Z,290
2018-08-04T10:08:34.263Z,290
2018-08-04T10:09:34.791Z,290
2018-08-04T10:10:34.781Z,290
2018-08-04T10:11:35.474Z,290
2018-08-04T10:12:34.801Z,290
2018-08-04T10:13:35.058Z,290
2018-08-04T10:14:35.073Z,290
2018-08-04T10:15:34.822Z,290
2018-08-04T10:16:34.579Z,285
2018-08-04T10:17:35.088Z,285
2018-08-04T10:18:35.094Z,285
2018-08-04T10:19:34.849Z,285
2018-08-04T10:20:34.619Z,285
2018-08-04T10:21:35.127Z,290
2018-08-04T10:22:35.124Z,295
2018-08-04T10:23:35.137Z,300
2018-08-04T10:24:34.896Z,305
2018-08-04T10:25:35.151Z,310
2018-08-04T10:26:35.155Z,315
2018-08-04T10:27:35.206Z,320
2018-08-04T10:28:34.926Z,320
2018-08-04T10:29:34.935Z,325
2018-08-04T10:30:34.938Z,330
2018-08-04T10:31:34.690Z,335
2018-08-04T10:32:35.727Z,335
2018-08-04T10:33:34.958Z,335
2018-08-04T10:34:35.232Z,335
2018-08-04T10:35:34.973Z,335
2018-08-04T10:36:34.989Z,335
2018-08-04T10:37:35.245Z,335
2018-08-04T10:38:35.407Z,310
2018-08-04T10:39:35.009Z,310
2018-08-04T10:40:35.272Z,310
2018-08-04T10:41:35.021Z,290
2018-08-04T10:42:35.534Z,290
2018-08-04T10:43:35.033Z,295
2018-08-04T10:44:35.293Z,305
2018-08-04T10:45:35.051Z,310
2018-08-04T10:46:35.309Z,315
2018-08-04T10:47:35.072Z,310
2018-08-04T10:48:35.090Z,300
2018-08-04T10:49:35.068Z,310
2018-08-04T10:50:34.854Z,315
2018-08-04T10:51:35.105Z,320
2018-08-04T10:52:35.106Z,330
2018-08-04T10:53:35.366Z,345
2018-08-04T10:54:35.380Z,380
2018-08-04T10:55:35.390Z,370
2018-08-04T10:56:34.632Z,360
2018-08-04T10:57:35.153Z,350
2018-08-04T10:58:35.155Z,360
2018-08-04T10:59:35.158Z,380
2018-08-04T11:00:35.170Z,410
2018-08-04T11:01:35.210Z,450
2018-08-04T11:02:35.432Z,485
2018-08-04T11:03:35.452Z,490
2018-08-04T11:04:34.947Z,500
2018-08-04T11:05:35.208Z,515
2018-08-04T11:06:35.218Z,510
2018-08-04T11:07:35.228Z,515
2018-08-04T11:08:35.234Z,510
2018-08-04T11:09:35.245Z,485
2018-08-04T11:10:35.501Z,485
2018-08-04T11:11:35.252Z,485
2018-08-04T11:12:35.505Z,505
2018-08-04T11:13:35.795Z,520
2018-08-04T11:14:35.282Z,530
2018-08-04T11:15:35.541Z,530
2018-08-04T11:16:35.551Z,505
2018-08-04T11:17:35.555Z,490
2018-08-04T11:18:35.320Z,475
2018-08-04T11:19:35.579Z,495
2018-08-04T11:20:35.680Z,510
2018-08-04T11:21:35.592Z,520
2018-08-04T11:22:35.605Z,520
2018-08-04T11:23:35.604Z,515
2018-08-04T11:24:35.451Z,515
2018-08-04T11:25:35.630Z,525
2018-08-04T11:26:35.630Z,540
2018-08-04T11:27:35.503Z,555
2018-08-04T11:28:35.649Z,585
2018-08-04T11:29:35.678Z,600
2018-08-04T11:30:35.691Z,615
2018-08-04T11:31:35.678Z,615
2018-08-04T11:32:35.430Z,595
2018-08-04T11:33:35.455Z,575
2018-08-04T11:34:35.454Z,570
2018-08-04T11:35:35.215Z,560
2018-08-04T11:36:35.719Z,570
2018-08-04T11:37:35.734Z,580
2018-08-04T11:38:35.497Z,590
2018-08-04T11:39:35.249Z,590
2018-08-04T11:40:35.757Z,585
2018-08-04T11:41:35.774Z,585
2018-08-04T11:42:35.528Z,590
2018-08-04T11:43:35.783Z,590
2018-08-04T11:44:35.804Z,585
2018-08-04T11:45:36.141Z,580
2018-08-04T11:46:35.818Z,575
2018-08-04T11:47:35.571Z,585
2018-08-04T11:48:35.833Z,590
2018-08-04T11:49:35.600Z,585
2018-08-04T11:50:35.859Z,590
2018-08-04T11:51:36.041Z,590
2018-08-04T11:52:35.632Z,580
2018-08-04T11:53:35.378Z,560
2018-08-04T11:54:35.898Z,540
2018-08-04T11:55:35.898Z,525
2018-08-04T11:56:35.937Z,530
2018-08-04T11:57:35.415Z,570
2018-08-04T11:58:36.390Z,580
2018-08-04T11:59:35.692Z,580
2018-08-04T12:00:35.454Z,590
2018-08-04T12:01:35.708Z,595
2018-08-04T12:02:35.725Z,595
2018-08-04T12:03:35.729Z,595
2018-08-04T12:04:35.743Z,590
2018-08-04T12:05:36.405Z,590
2018-08-04T12:06:35.763Z,570
2018-08-04T12:07:35.838Z,570
2018-08-04T12:08:36.032Z,565
2018-08-04T12:09:35.823Z,555
2018-08-04T12:10:35.807Z,550
2018-08-04T12:11:36.064Z,540
2018-08-04T12:12:35.822Z,545
2018-08-04T12:13:36.091Z,530
2018-08-04T12:14:35.836Z,515
2018-08-04T12:15:35.846Z,490
2018-08-04T12:16:35.855Z,470
2018-08-04T12:17:35.885Z,450
2018-08-04T12:18:36.132Z,440
2018-08-04T12:19:36.145Z,435
2018-08-04T12:20:35.899Z,440
2018-08-04T12:21:35.945Z,435
2018-08-04T12:22:36.218Z,430
2018-08-04T12:23:36.189Z,435
2018-08-04T12:24:35.942Z,440
2018-08-04T12:25:36.197Z,425
2018-08-04T12:26:36.210Z,420
2018-08-04T12:27:36.257Z,425
2018-08-04T12:28:35.974Z,440
2018-08-04T12:29:36.233Z,450
2018-08-04T12:30:36.246Z,455
2018-08-04T12:31:36.315Z,445
2018-08-04T12:32:36.012Z,430
2018-08-04T12:33:36.271Z,420
2018-08-04T12:34:36.290Z,415
2018-08-04T12:35:36.293Z,415
2018-08-04T12:36:36.316Z,425
2018-08-04T12:37:36.699Z,440
2018-08-04T12:38:35.812Z,450
2018-08-04T12:39:36.093Z,465
2018-08-04T12:40:36.341Z,475
2018-08-04T12:41:36.357Z,495
2018-08-04T12:42:36.106Z,515
2018-08-04T12:43:36.373Z,530
2018-08-04T12:44:36.120Z,540
2018-08-04T12:45:36.389Z,540
2018-08-04T12:46:36.391Z,540
2018-08-04T12:47:36.407Z,535
2018-08-04T12:48:36.427Z,535
2018-08-04T12:49:36.419Z,525
2018-08-04T12:50:36.430Z,510
2018-08-04T12:51:36.246Z,500
2018-08-04T12:52:36.451Z,480
2018-08-04T12:53:35.968Z,470
2018-08-04T12:54:36.983Z,475
2018-08-04T12:55:36.471Z,485
2018-08-04T12:56:36.481Z,505
2018-08-04T12:57:36.500Z,515
2018-08-04T12:58:36.106Z,525
2018-08-04T12:59:36.326Z,525
2018-08-04T13:00:36.263Z,515
2018-08-04T13:01:36.020Z,495
2018-08-04T13:02:36.709Z,490
2018-08-04T13:03:36.043Z,480
2018-08-04T13:04:36.550Z,470
2018-08-04T13:05:36.617Z,465
2018-08-04T13:06:36.386Z,465
2018-08-04T13:07:36.334Z,470
2018-08-04T13:08:36.599Z,465
2018-08-04T13:09:36.597Z,465
2018-08-04T13:10:36.353Z,465
2018-08-04T13:11:36.361Z,460
2018-08-04T13:12:36.120Z,455
2018-08-04T13:13:36.421Z,435
2018-08-04T13:14:36.390Z,430
2018-08-04T13:15:36.663Z,435
2018-08-04T13:16:36.415Z,445
2018-08-04T13:17:36.670Z,460
2018-08-04T13:18:36.698Z,480
2018-08-04T13:19:36.691Z,480
2018-08-04T13:20:36.694Z,470
2018-08-04T13:21:36.454Z,460
2018-08-04T13:22:36.714Z,435
2018-08-04T13:23:36.471Z,405
2018-08-04T13:24:36.481Z,390
2018-08-04T13:25:36.492Z,360
2018-08-04T13:26:36.255Z,340
2018-08-04T13:27:36.787Z,330
2018-08-04T13:28:36.769Z,315
2018-08-04T13:29:36.850Z,300
2018-08-04T13:30:36.809Z,295
2018-08-04T13:31:36.552Z,290
2018-08-04T13:32:36.298Z,285
2018-08-04T13:33:36.058Z,280
2018-08-04T13:34:36.575Z,275
2018-08-04T13:35:36.831Z,270
2018-08-04T13:36:36.586Z,265
2018-08-04T13:37:37.013Z,260
2018-08-04T13:38:36.605Z,250
2018-08-04T13:39:36.869Z,240
2018-08-04T13:40:36.624Z,240
2018-08-04T13:41:36.379Z,240
2018-08-04T13:42:36.388Z,245
2018-08-04T13:43:36.926Z,245
2018-08-04T13:44:36.906Z,240
2018-08-04T13:45:36.914Z,235
2018-08-04T13:46:37.068Z,235
2018-08-04T13:47:36.934Z,230
2018-08-04T13:48:36.940Z,225
2018-08-04T13:49:36.953Z,230
2018-08-04T13:50:36.962Z,230
2018-08-04T13:51:36.967Z,230
2018-08-04T13:52:36.727Z,225
2018-08-04T13:53:36.983Z,225
2018-08-04T13:54:36.741Z,220
2018-08-04T13:55:36.994Z,210
2018-08-04T13:56:37.010Z,210
2018-08-04T13:57:37.021Z,215
2018-08-04T13:58:37.025Z,225
2018-08-04T13:59:36.873Z,235
2018-08-04T14:00:36.791Z,250
2018-08-04T14:01:36.798Z,250
2018-08-04T14:02:37.052Z,260
2018-08-04T14:03:37.059Z,260
2018-08-04T14:04:37.095Z,260
2018-08-04T14:05:37.077Z,265
2018-08-04T14:06:36.833Z,260
2018-08-04T14:07:37.101Z,255
2018-08-04T14:08:36.602Z,250
2018-08-04T14:09:37.182Z,250
2018-08-04T14:10:37.117Z,255
2018-08-04T14:11:37.126Z,245
2018-08-04T14:12:37.353Z,240